sensor_id;sensor_type;location;lat;lon;timestamp;pressure;altitude;pressure_sealevel;temperature;humidity
16030;BME280;34770;49.272;11.070;2023-05-25T00:01:21;98170.09;;;8.82;68.13
16030;BME280;34770;49.272;11.070;2023-05-25T00:03:48;98165.44;;;8.84;67.46
16030;BME280;34770;49.272;11.070;2023-05-25T00:06:16;98173.06;;;8.90;67.35
16030;BME280;34770;49.272;11.070;2023-05-25T00:08:42;98144.47;;;8.64;67.64
16030;BME280;34770;49.272;11.070;2023-05-25T00:11:08;98163.53;;;8.73;67.96
16030;BME280;34770;49.272;11.070;2023-05-25T00:13:33;98150.66;;;8.53;68.38
16030;BME280;34770;49.272;11.070;2023-05-25T00:15:59;98164.88;;;8.44;69.14
16030;BME280;34770;49.272;11.070;2023-05-25T00:18:24;98145.16;;;8.55;68.83
16030;BME280;34770;49.272;11.070;2023-05-25T00:20:51;98154.47;;;8.51;68.75
16030;BME280;34770;49.272;11.070;2023-05-25T00:23:19;98155.56;;;8.72;68.82
16030;BME280;34770;49.272;11.070;2023-05-25T00:25:45;98141.06;;;8.73;68.35
16030;BME280;34770;49.272;11.070;2023-05-25T00:28:11;98155.16;;;8.89;68.56
16030;BME280;34770;49.272;11.070;2023-05-25T00:30:37;98159.69;;;8.89;68.75
16030;BME280;34770;49.272;11.070;2023-05-25T00:33:02;98163.53;;;8.97;68.73
16030;BME280;34770;49.272;11.070;2023-05-25T00:35:28;98157.66;;;9.03;68.41
16030;BME280;34770;49.272;11.070;2023-05-25T00:37:54;98159.34;;;9.04;69.23
16030;BME280;34770;49.272;11.070;2023-05-25T00:40:19;98163.06;;;9.03;67.84
16030;BME280;34770;49.272;11.070;2023-05-25T00:42:46;98172.63;;;9.07;67.84
16030;BME280;34770;49.272;11.070;2023-05-25T00:45:11;98142.38;;;8.91;67.93
16030;BME280;34770;49.272;11.070;2023-05-25T00:47:38;98160.63;;;9.11;68.38
16030;BME280;34770;49.272;11.070;2023-05-25T00:50:07;98140.34;;;9.06;68.06
16030;BME280;34770;49.272;11.070;2023-05-25T00:52:33;98152.34;;;9.02;68.36
16030;BME280;34770;49.272;11.070;2023-05-25T00:55:01;98146.84;;;9.03;67.83
16030;BME280;34770;49.272;11.070;2023-05-25T00:57:28;98145.97;;;9.03;68.38
16030;BME280;34770;49.272;11.070;2023-05-25T00:59:59;98150.41;;;9.04;68.07
16030;BME280;34770;49.272;11.070;2023-05-25T01:02:26;98144.47;;;8.99;68.03
16030;BME280;34770;49.272;11.070;2023-05-25T01:04:53;98145.56;;;8.96;68.58
16030;BME280;34770;49.272;11.070;2023-05-25T01:07:26;98145.03;;;8.80;68.01
16030;BME280;34770;49.272;11.070;2023-05-25T01:10:04;98145.66;;;8.60;68.99
16030;BME280;34770;49.272;11.070;2023-05-25T01:12:33;98144.56;;;8.62;69.10
16030;BME280;34770;49.272;11.070;2023-05-25T01:15:00;98150.09;;;8.61;69.16
16030;BME280;34770;49.272;11.070;2023-05-25T01:17:28;98145.69;;;8.36;69.21
16030;BME280;34770;49.272;11.070;2023-05-25T01:19:53;98147.81;;;8.44;69.44
16030;BME280;34770;49.272;11.070;2023-05-25T01:22:24;98137.50;;;8.49;69.30
16030;BME280;34770;49.272;11.070;2023-05-25T01:24:58;98152.75;;;8.50;68.94
16030;BME280;34770;49.272;11.070;2023-05-25T01:27:44;98152.28;;;8.32;69.29
16030;BME280;34770;49.272;11.070;2023-05-25T01:30:13;98142.22;;;8.34;69.53
16030;BME280;34770;49.272;11.070;2023-05-25T01:32:44;98145.56;;;8.38;69.24
16030;BME280;34770;49.272;11.070;2023-05-25T01:35:10;98149.81;;;8.53;68.66
16030;BME280;34770;49.272;11.070;2023-05-25T01:37:37;98157.34;;;8.60;68.49
16030;BME280;34770;49.272;11.070;2023-05-25T01:40:04;98156.97;;;8.65;69.09
16030;BME280;34770;49.272;11.070;2023-05-25T01:42:30;98152.41;;;8.54;69.10
16030;BME280;34770;49.272;11.070;2023-05-25T01:44:57;98147.44;;;8.48;68.73
16030;BME280;34770;49.272;11.070;2023-05-25T01:50:13;98157.22;;;8.62;69.39
16030;BME280;34770;49.272;11.070;2023-05-25T01:52:51;98159.63;;;8.54;68.97
16030;BME280;34770;49.272;11.070;2023-05-25T01:55:21;98159.06;;;8.61;69.50
16030;BME280;34770;49.272;11.070;2023-05-25T01:57:49;98137.41;;;8.50;68.99
16030;BME280;34770;49.272;11.070;2023-05-25T02:00:17;98155.03;;;8.43;69.69
16030;BME280;34770;49.272;11.070;2023-05-25T02:02:46;98152.31;;;8.56;70.42
16030;BME280;34770;49.272;11.070;2023-05-25T02:05:12;98151.47;;;8.43;70.36
16030;BME280;34770;49.272;11.070;2023-05-25T02:07:38;98146.53;;;8.37;70.21
16030;BME280;34770;49.272;11.070;2023-05-25T02:10:04;98153.44;;;8.41;70.62
16030;BME280;34770;49.272;11.070;2023-05-25T02:12:29;98130.16;;;8.27;71.03
16030;BME280;34770;49.272;11.070;2023-05-25T02:14:55;98150.88;;;8.39;70.96
16030;BME280;34770;49.272;11.070;2023-05-25T02:17:20;98149.56;;;8.32;70.43
16030;BME280;34770;49.272;11.070;2023-05-25T02:19:46;98156.94;;;8.30;70.83
16030;BME280;34770;49.272;11.070;2023-05-25T02:22:13;98142.25;;;8.22;71.02
16030;BME280;34770;49.272;11.070;2023-05-25T02:24:39;98144.00;;;8.10;71.00
16030;BME280;34770;49.272;11.070;2023-05-25T02:27:05;98155.31;;;8.15;71.39
16030;BME280;34770;49.272;11.070;2023-05-25T02:29:31;98135.50;;;8.03;70.95
16030;BME280;34770;49.272;11.070;2023-05-25T02:31:57;98152.84;;;8.12;71.15
16030;BME280;34770;49.272;11.070;2023-05-25T02:34:23;98145.03;;;7.96;71.10
16030;BME280;34770;49.272;11.070;2023-05-25T02:36:48;98125.84;;;7.76;71.58
16030;BME280;34770;49.272;11.070;2023-05-25T02:39:14;98156.38;;;7.76;72.16
16030;BME280;34770;49.272;11.070;2023-05-25T02:41:39;98150.56;;;7.70;72.00
16030;BME280;34770;49.272;11.070;2023-05-25T02:44:05;98160.16;;;7.74;72.49
16030;BME280;34770;49.272;11.070;2023-05-25T02:46:31;98148.41;;;7.62;72.27
16030;BME280;34770;49.272;11.070;2023-05-25T02:48:57;98161.47;;;7.55;72.26
16030;BME280;34770;49.272;11.070;2023-05-25T02:51:23;98140.88;;;7.42;72.53
16030;BME280;34770;49.272;11.070;2023-05-25T02:53:49;98160.84;;;7.52;72.15
16030;BME280;34770;49.272;11.070;2023-05-25T02:56:14;98153.59;;;7.52;72.59
16030;BME280;34770;49.272;11.070;2023-05-25T02:58:40;98148.19;;;7.52;72.40
16030;BME280;34770;49.272;11.070;2023-05-25T03:01:06;98149.97;;;7.41;72.35
16030;BME280;34770;49.272;11.070;2023-05-25T03:03:35;98146.41;;;7.40;72.42
16030;BME280;34770;49.272;11.070;2023-05-25T03:06:01;98143.69;;;7.40;72.58
16030;BME280;34770;49.272;11.070;2023-05-25T03:08:28;98158.34;;;7.36;73.46
16030;BME280;34770;49.272;11.070;2023-05-25T03:10:54;98147.25;;;7.28;73.23
16030;BME280;34770;49.272;11.070;2023-05-25T03:13:19;98148.97;;;7.29;73.16
16030;BME280;34770;49.272;11.070;2023-05-25T03:15:45;98142.06;;;7.25;72.95
16030;BME280;34770;49.272;11.070;2023-05-25T03:18:10;98165.47;;;7.37;72.99
16030;BME280;34770;49.272;11.070;2023-05-25T03:20:36;98165.69;;;7.34;73.68
16030;BME280;34770;49.272;11.070;2023-05-25T03:23:01;98148.00;;;7.18;73.49
16030;BME280;34770;49.272;11.070;2023-05-25T03:25:27;98154.66;;;7.25;72.86
16030;BME280;34770;49.272;11.070;2023-05-25T03:27:53;98163.28;;;7.30;73.23
16030;BME280;34770;49.272;11.070;2023-05-25T03:30:21;98177.97;;;7.38;73.54
16030;BME280;34770;49.272;11.070;2023-05-25T03:32:47;98179.59;;;7.41;73.40
16030;BME280;34770;49.272;11.070;2023-05-25T03:35:12;98173.78;;;7.34;72.94
16030;BME280;34770;49.272;11.070;2023-05-25T03:37:38;98181.84;;;7.34;73.13
16030;BME280;34770;49.272;11.070;2023-05-25T03:40:04;98154.66;;;7.25;73.36
16030;BME280;34770;49.272;11.070;2023-05-25T03:42:30;98181.84;;;7.34;73.64
16030;BME280;34770;49.272;11.070;2023-05-25T03:44:55;98182.72;;;7.35;73.56
16030;BME280;34770;49.272;11.070;2023-05-25T03:47:21;98172.25;;;7.30;73.46
16030;BME280;34770;49.272;11.070;2023-05-25T03:49:46;98166.75;;;7.19;72.88
16030;BME280;34770;49.272;11.070;2023-05-25T03:52:11;98200.09;;;7.43;73.25
16030;BME280;34770;49.272;11.070;2023-05-25T03:54:37;98182.81;;;7.33;73.35
16030;BME280;34770;49.272;11.070;2023-05-25T03:57:03;98203.00;;;7.53;73.28
16030;BME280;34770;49.272;11.070;2023-05-25T03:59:29;98202.91;;;7.54;73.24
16030;BME280;34770;49.272;11.070;2023-05-25T04:01:55;98205.28;;;7.46;72.01
16030;BME280;34770;49.272;11.070;2023-05-25T04:04:20;98203.31;;;7.48;73.12
16030;BME280;34770;49.272;11.070;2023-05-25T04:06:46;98194.13;;;7.38;73.41
16030;BME280;34770;49.272;11.070;2023-05-25T04:09:13;98187.13;;;7.36;73.09
16030;BME280;34770;49.272;11.070;2023-05-25T04:11:39;98206.22;;;7.58;73.77
16030;BME280;34770;49.272;11.070;2023-05-25T04:14:05;98191.13;;;7.43;73.16
16030;BME280;34770;49.272;11.070;2023-05-25T04:16:30;98208.28;;;7.67;73.14
16030;BME280;34770;49.272;11.070;2023-05-25T04:18:56;98204.72;;;7.67;72.95
16030;BME280;34770;49.272;11.070;2023-05-25T04:21:21;98206.56;;;7.66;73.09
16030;BME280;34770;49.272;11.070;2023-05-25T04:23:47;98219.59;;;7.72;72.98
16030;BME280;34770;49.272;11.070;2023-05-25T04:26:13;98219.94;;;7.68;73.05
16030;BME280;34770;49.272;11.070;2023-05-25T04:28:39;98218.41;;;7.76;73.92
16030;BME280;34770;49.272;11.070;2023-05-25T04:31:06;98217.78;;;7.85;73.92
16030;BME280;34770;49.272;11.070;2023-05-25T04:33:32;98221.22;;;8.00;72.89
16030;BME280;34770;49.272;11.070;2023-05-25T04:35:59;98209.75;;;8.09;73.15
16030;BME280;34770;49.272;11.070;2023-05-25T04:38:25;98218.91;;;8.32;72.97
16030;BME280;34770;49.272;11.070;2023-05-25T04:40:51;98217.81;;;8.34;72.47
16030;BME280;34770;49.272;11.070;2023-05-25T04:43:18;98223.63;;;8.41;73.12
16030;BME280;34770;49.272;11.070;2023-05-25T04:45:45;98215.66;;;8.39;73.14
16030;BME280;34770;49.272;11.070;2023-05-25T04:48:11;98211.75;;;8.43;72.53
16030;BME280;34770;49.272;11.070;2023-05-25T04:50:39;98218.81;;;8.57;72.60
16030;BME280;34770;49.272;11.070;2023-05-25T04:53:05;98213.84;;;8.63;72.45
16030;BME280;34770;49.272;11.070;2023-05-25T04:55:31;98211.94;;;8.77;72.20
16030;BME280;34770;49.272;11.070;2023-05-25T04:57:56;98234.53;;;8.99;72.24
16030;BME280;34770;49.272;11.070;2023-05-25T05:00:23;98234.03;;;8.94;71.72
16030;BME280;34770;49.272;11.070;2023-05-25T05:02:49;98235.94;;;9.16;71.65
16030;BME280;34770;49.272;11.070;2023-05-25T05:05:16;98239.19;;;9.32;71.85
16030;BME280;34770;49.272;11.070;2023-05-25T05:07:41;98235.28;;;9.36;68.39
16030;BME280;34770;49.272;11.070;2023-05-25T05:10:07;98235.47;;;9.46;68.53
16030;BME280;34770;49.272;11.070;2023-05-25T05:12:33;98246.22;;;9.80;70.22
16030;BME280;34770;49.272;11.070;2023-05-25T05:14:58;98227.53;;;9.88;69.86
16030;BME280;34770;49.272;11.070;2023-05-25T05:17:24;98238.91;;;10.16;70.07
16030;BME280;34770;49.272;11.070;2023-05-25T05:19:52;98219.09;;;10.26;68.44
16030;BME280;34770;49.272;11.070;2023-05-25T05:22:18;98239.13;;;10.46;67.04
16030;BME280;34770;49.272;11.070;2023-05-25T05:24:43;98239.84;;;10.59;65.76
16030;BME280;34770;49.272;11.070;2023-05-25T05:27:08;98242.31;;;10.62;65.11
16030;BME280;34770;49.272;11.070;2023-05-25T05:29:34;98224.47;;;10.60;63.03
16030;BME280;34770;49.272;11.070;2023-05-25T05:32:01;98237.97;;;10.82;63.43
16030;BME280;34770;49.272;11.070;2023-05-25T05:34:27;98229.50;;;10.09;64.03
16030;BME280;34770;49.272;11.070;2023-05-25T05:36:52;98227.31;;;10.14;63.25
16030;BME280;34770;49.272;11.070;2023-05-25T05:39:18;98244.78;;;10.54;63.84
16030;BME280;34770;49.272;11.070;2023-05-25T05:41:43;98250.81;;;10.69;63.39
16030;BME280;34770;49.272;11.070;2023-05-25T05:44:10;98245.97;;;10.83;62.69
16030;BME280;34770;49.272;11.070;2023-05-25T05:46:36;98259.25;;;10.97;62.10
16030;BME280;34770;49.272;11.070;2023-05-25T05:49:02;98258.72;;;11.03;62.26
16030;BME280;34770;49.272;11.070;2023-05-25T05:51:28;98258.50;;;10.95;62.01
16030;BME280;34770;49.272;11.070;2023-05-25T05:53:54;98227.00;;;10.83;61.01
16030;BME280;34770;49.272;11.070;2023-05-25T05:56:20;98263.16;;;11.04;60.68
16030;BME280;34770;49.272;11.070;2023-05-25T05:58:46;98260.41;;;11.16;60.79
16030;BME280;34770;49.272;11.070;2023-05-25T06:01:14;98264.09;;;11.15;60.92
16030;BME280;34770;49.272;11.070;2023-05-25T06:03:41;98260.72;;;11.33;60.75
16030;BME280;34770;49.272;11.070;2023-05-25T06:06:07;98245.84;;;11.28;61.02
16030;BME280;34770;49.272;11.070;2023-05-25T06:08:32;98251.38;;;11.26;60.84
16030;BME280;34770;49.272;11.070;2023-05-25T06:10:58;98263.19;;;11.57;60.58
16030;BME280;34770;49.272;11.070;2023-05-25T06:13:23;98262.22;;;11.58;59.90
16030;BME280;34770;49.272;11.070;2023-05-25T06:15:49;98262.91;;;11.71;60.55
16030;BME280;34770;49.272;11.070;2023-05-25T06:18:14;98247.22;;;11.75;59.46
16030;BME280;34770;49.272;11.070;2023-05-25T06:20:40;98261.78;;;11.94;59.86
16030;BME280;34770;49.272;11.070;2023-05-25T06:23:05;98248.41;;;11.82;59.30
16030;BME280;34770;49.272;11.070;2023-05-25T06:25:33;98274.00;;;12.30;59.44
16030;BME280;34770;49.272;11.070;2023-05-25T06:27:58;98251.53;;;12.28;58.61
16030;BME280;34770;49.272;11.070;2023-05-25T06:30:24;98248.09;;;12.26;58.86
16030;BME280;34770;49.272;11.070;2023-05-25T06:32:49;98254.84;;;12.32;58.35
16030;BME280;34770;49.272;11.070;2023-05-25T06:35:15;98266.03;;;12.68;58.53
16030;BME280;34770;49.272;11.070;2023-05-25T06:37:48;98250.38;;;12.61;57.36
16030;BME280;34770;49.272;11.070;2023-05-25T06:40:14;98246.94;;;13.08;57.58
16030;BME280;34770;49.272;11.070;2023-05-25T06:42:41;98254.00;;;13.59;56.75
16030;BME280;34770;49.272;11.070;2023-05-25T06:45:07;98247.13;;;13.74;55.41
16030;BME280;34770;49.272;11.070;2023-05-25T06:47:33;98249.63;;;14.14;54.06
16030;BME280;34770;49.272;11.070;2023-05-25T06:49:59;98261.47;;;13.57;55.38
16030;BME280;34770;49.272;11.070;2023-05-25T06:52:25;98271.06;;;13.80;55.23
16030;BME280;34770;49.272;11.070;2023-05-25T06:54:54;98263.31;;;13.66;54.29
16030;BME280;34770;49.272;11.070;2023-05-25T06:57:21;98235.88;;;14.06;53.98
16030;BME280;34770;49.272;11.070;2023-05-25T06:59:47;98269.88;;;14.11;54.24
16030;BME280;34770;49.272;11.070;2023-05-25T07:02:13;98259.84;;;14.02;53.50
16030;BME280;34770;49.272;11.070;2023-05-25T07:04:38;98269.78;;;14.49;53.75
16030;BME280;34770;49.272;11.070;2023-05-25T07:07:04;98261.66;;;14.67;52.55
16030;BME280;34770;49.272;11.070;2023-05-25T07:09:31;98270.72;;;14.95;52.13
16030;BME280;34770;49.272;11.070;2023-05-25T07:11:56;98253.59;;;14.75;51.53
16030;BME280;34770;49.272;11.070;2023-05-25T07:14:22;98257.03;;;14.40;52.79
16030;BME280;34770;49.272;11.070;2023-05-25T07:16:47;98252.78;;;14.92;52.89
16030;BME280;34770;49.272;11.070;2023-05-25T07:19:13;98258.97;;;15.12;51.22
16030;BME280;34770;49.272;11.070;2023-05-25T07:21:38;98264.47;;;14.85;52.25
16030;BME280;34770;49.272;11.070;2023-05-25T07:24:04;98264.88;;;14.90;52.43
16030;BME280;34770;49.272;11.070;2023-05-25T07:26:30;98256.16;;;15.04;51.92
16030;BME280;34770;49.272;11.070;2023-05-25T07:28:56;98261.47;;;15.50;51.43
16030;BME280;34770;49.272;11.070;2023-05-25T07:31:22;98266.13;;;15.40;51.74
16030;BME280;34770;49.272;11.070;2023-05-25T07:33:48;98261.84;;;15.91;50.49
16030;BME280;34770;49.272;11.070;2023-05-25T07:36:13;98262.13;;;16.31;49.01
16030;BME280;34770;49.272;11.070;2023-05-25T07:38:39;98268.00;;;16.36;49.99
16030;BME280;34770;49.272;11.070;2023-05-25T07:41:04;98257.53;;;16.57;48.26
16030;BME280;34770;49.272;11.070;2023-05-25T07:43:30;98241.22;;;16.81;47.98
16030;BME280;34770;49.272;11.070;2023-05-25T07:45:56;98265.50;;;17.18;47.57
16030;BME280;34770;49.272;11.070;2023-05-25T07:48:21;98251.66;;;17.12;47.68
16030;BME280;34770;49.272;11.070;2023-05-25T07:50:47;98255.38;;;17.03;49.13
16030;BME280;34770;49.272;11.070;2023-05-25T07:53:12;98255.13;;;17.46;46.93
16030;BME280;34770;49.272;11.070;2023-05-25T07:55:38;98253.16;;;17.72;45.49
16030;BME280;34770;49.272;11.070;2023-05-25T07:58:04;98236.03;;;17.78;45.17
16030;BME280;34770;49.272;11.070;2023-05-25T08:00:31;98248.28;;;17.34;45.58
16030;BME280;34770;49.272;11.070;2023-05-25T08:02:57;98261.19;;;17.66;46.93
16030;BME280;34770;49.272;11.070;2023-05-25T08:05:22;98262.59;;;18.02;44.67
16030;BME280;34770;49.272;11.070;2023-05-25T08:07:48;98259.50;;;18.05;44.82
16030;BME280;34770;49.272;11.070;2023-05-25T08:10:13;98253.84;;;18.23;43.92
16030;BME280;34770;49.272;11.070;2023-05-25T08:12:39;98251.94;;;18.64;43.41
16030;BME280;34770;49.272;11.070;2023-05-25T08:15:05;98260.13;;;18.80;42.80
16030;BME280;34770;49.272;11.070;2023-05-25T08:17:30;98257.91;;;18.67;43.77
16030;BME280;34770;49.272;11.070;2023-05-25T08:19:56;98239.69;;;18.82;42.06
16030;BME280;34770;49.272;11.070;2023-05-25T08:22:21;98253.53;;;18.97;42.32
16030;BME280;34770;49.272;11.070;2023-05-25T08:24:47;98248.06;;;18.81;42.55
16030;BME280;34770;49.272;11.070;2023-05-25T08:27:12;98240.69;;;19.28;42.00
16030;BME280;34770;49.272;11.070;2023-05-25T08:29:38;98237.50;;;19.47;41.18
16030;BME280;34770;49.272;11.070;2023-05-25T08:32:03;98240.25;;;19.47;42.00
16030;BME280;34770;49.272;11.070;2023-05-25T08:34:29;98234.47;;;19.26;41.03
16030;BME280;34770;49.272;11.070;2023-05-25T08:36:58;98236.34;;;19.64;41.40
16030;BME280;34770;49.272;11.070;2023-05-25T08:39:23;98242.47;;;19.75;40.59
16030;BME280;34770;49.272;11.070;2023-05-25T08:41:49;98252.09;;;19.48;41.32
16030;BME280;34770;49.272;11.070;2023-05-25T08:44:18;98231.97;;;19.17;41.42
16030;BME280;34770;49.272;11.070;2023-05-25T08:46:46;98240.59;;;19.44;42.39
16030;BME280;34770;49.272;11.070;2023-05-25T08:49:13;98244.34;;;19.13;42.86
16030;BME280;34770;49.272;11.070;2023-05-25T08:51:57;98242.88;;;20.09;41.68
16030;BME280;34770;49.272;11.070;2023-05-25T08:54:35;98239.41;;;20.81;39.33
16030;BME280;34770;49.272;11.070;2023-05-25T08:59:57;98253.53;;;20.49;39.02
16030;BME280;34770;49.272;11.070;2023-05-25T09:05:00;98248.78;;;21.31;38.52
16030;BME280;34770;49.272;11.070;2023-05-25T09:07:28;98254.88;;;20.97;38.45
16030;BME280;34770;49.272;11.070;2023-05-25T09:09:54;98253.56;;;21.22;39.67
16030;BME280;34770;49.272;11.070;2023-05-25T09:12:21;98250.06;;;20.99;38.99
16030;BME280;34770;49.272;11.070;2023-05-25T09:14:48;98263.13;;;21.56;38.59
16030;BME280;34770;49.272;11.070;2023-05-25T09:17:14;98249.47;;;20.60;39.87
16030;BME280;34770;49.272;11.070;2023-05-25T09:19:41;98250.50;;;21.03;39.41
16030;BME280;34770;49.272;11.070;2023-05-25T09:22:07;98249.47;;;21.69;38.20
16030;BME280;34770;49.272;11.070;2023-05-25T09:24:35;98251.69;;;21.94;38.51
16030;BME280;34770;49.272;11.070;2023-05-25T09:27:01;98257.88;;;21.82;38.17
16030;BME280;34770;49.272;11.070;2023-05-25T09:29:28;98224.13;;;20.79;38.62
16030;BME280;34770;49.272;11.070;2023-05-25T09:31:53;98243.59;;;20.63;39.17
16030;BME280;34770;49.272;11.070;2023-05-25T09:34:20;98247.50;;;21.12;39.20
16030;BME280;34770;49.272;11.070;2023-05-25T09:36:45;98245.06;;;21.89;39.84
16030;BME280;34770;49.272;11.070;2023-05-25T09:39:11;98240.69;;;21.80;38.80
16030;BME280;34770;49.272;11.070;2023-05-25T09:41:41;98238.41;;;22.05;38.17
16030;BME280;34770;49.272;11.070;2023-05-25T09:44:06;98254.91;;;22.19;37.85
16030;BME280;34770;49.272;11.070;2023-05-25T09:46:34;98239.22;;;21.12;39.29
16030;BME280;34770;49.272;11.070;2023-05-25T09:49:07;98240.94;;;21.85;38.61
16030;BME280;34770;49.272;11.070;2023-05-25T09:54:09;98235.75;;;22.94;36.25
16030;BME280;34770;49.272;11.070;2023-05-25T09:56:34;98231.53;;;22.98;37.33
16030;BME280;34770;49.272;11.070;2023-05-25T09:59:00;98237.34;;;22.76;36.71
16030;BME280;34770;49.272;11.070;2023-05-25T10:01:26;98224.13;;;20.94;39.08
16030;BME280;34770;49.272;11.070;2023-05-25T10:03:54;98243.94;;;22.26;37.80
16030;BME280;34770;49.272;11.070;2023-05-25T10:06:24;98233.47;;;22.49;37.12
16030;BME280;34770;49.272;11.070;2023-05-25T10:08:50;98236.00;;;22.72;37.03
16030;BME280;34770;49.272;11.070;2023-05-25T10:11:18;98239.97;;;22.90;36.40
16030;BME280;34770;49.272;11.070;2023-05-25T10:13:46;98244.72;;;22.69;37.00
16030;BME280;34770;49.272;11.070;2023-05-25T10:16:16;98247.59;;;22.61;37.16
16030;BME280;34770;49.272;11.070;2023-05-25T10:18:57;98247.75;;;23.49;37.20
16030;BME280;34770;49.272;11.070;2023-05-25T10:21:24;98239.06;;;23.18;36.49
16030;BME280;34770;49.272;11.070;2023-05-25T10:23:53;98249.53;;;23.76;35.79
16030;BME280;34770;49.272;11.070;2023-05-25T10:26:25;98257.69;;;23.02;37.30
16030;BME280;34770;49.272;11.070;2023-05-25T10:28:55;98262.09;;;23.79;35.64
16030;BME280;34770;49.272;11.070;2023-05-25T10:31:24;98243.13;;;23.62;34.88
16030;BME280;34770;49.272;11.070;2023-05-25T10:33:52;98262.66;;;23.54;35.36
16030;BME280;34770;49.272;11.070;2023-05-25T10:36:19;98253.47;;;23.13;35.96
16030;BME280;34770;49.272;11.070;2023-05-25T10:38:45;98251.66;;;23.74;35.01
16030;BME280;34770;49.272;11.070;2023-05-25T10:41:10;98236.22;;;24.26;34.28
16030;BME280;34770;49.272;11.070;2023-05-25T10:43:37;98242.00;;;24.11;35.13
16030;BME280;34770;49.272;11.070;2023-05-25T10:46:04;98239.81;;;24.06;34.32
16030;BME280;34770;49.272;11.070;2023-05-25T10:48:44;98243.53;;;23.59;35.74
16030;BME280;34770;49.272;11.070;2023-05-25T10:51:09;98240.22;;;22.95;34.98
16030;BME280;34770;49.272;11.070;2023-05-25T10:53:35;98244.69;;;23.37;35.30
16030;BME280;34770;49.272;11.070;2023-05-25T10:56:04;98241.25;;;23.29;36.04
16030;BME280;34770;49.272;11.070;2023-05-25T10:58:31;98232.06;;;23.76;35.25
16030;BME280;34770;49.272;11.070;2023-05-25T11:00:59;98247.97;;;24.28;34.74
16030;BME280;34770;49.272;11.070;2023-05-25T11:06:10;98244.19;;;25.38;33.42
16030;BME280;34770;49.272;11.070;2023-05-25T11:17:08;98235.34;;;25.04;33.48
16030;BME280;34770;49.272;11.070;2023-05-25T11:19:52;98234.38;;;25.43;31.93
16030;BME280;34770;49.272;11.070;2023-05-25T11:22:32;98227.22;;;24.04;33.16
16030;BME280;34770;49.272;11.070;2023-05-25T11:25:03;98219.00;;;24.30;34.25
16030;BME280;34770;49.272;11.070;2023-05-25T11:27:47;98227.72;;;24.40;34.83
16030;BME280;34770;49.272;11.070;2023-05-25T11:30:16;98226.00;;;24.52;35.44
16030;BME280;34770;49.272;11.070;2023-05-25T11:32:47;98231.72;;;24.05;34.32
16030;BME280;34770;49.272;11.070;2023-05-25T11:35:15;98221.22;;;25.18;32.70
16030;BME280;34770;49.272;11.070;2023-05-25T11:37:41;98219.22;;;25.83;31.16
16030;BME280;34770;49.272;11.070;2023-05-25T11:40:14;98229.06;;;26.17;31.56
16030;BME280;34770;49.272;11.070;2023-05-25T11:42:40;98220.97;;;25.26;33.19
16030;BME280;34770;49.272;11.070;2023-05-25T11:45:10;98217.41;;;23.28;34.48
16030;BME280;34770;49.272;11.070;2023-05-25T11:47:36;98216.31;;;23.22;34.30
16030;BME280;34770;49.272;11.070;2023-05-25T11:50:01;98212.75;;;23.35;34.58
16030;BME280;34770;49.272;11.070;2023-05-25T11:52:27;98218.13;;;24.49;33.91
16030;BME280;34770;49.272;11.070;2023-05-25T11:54:52;98226.47;;;25.40;31.95
16030;BME280;34770;49.272;11.070;2023-05-25T11:57:20;98221.75;;;25.53;30.98
16030;BME280;34770;49.272;11.070;2023-05-25T11:59:58;98223.03;;;24.87;31.77
16030;BME280;34770;49.272;11.070;2023-05-25T12:02:26;98231.81;;;25.85;31.84
16030;BME280;34770;49.272;11.070;2023-05-25T12:04:53;98230.06;;;26.29;30.21
16030;BME280;34770;49.272;11.070;2023-05-25T12:07:19;98219.28;;;26.39;30.35
16030;BME280;34770;49.272;11.070;2023-05-25T12:09:45;98219.22;;;25.32;32.21
16030;BME280;34770;49.272;11.070;2023-05-25T12:12:10;98208.81;;;25.78;31.00
16030;BME280;34770;49.272;11.070;2023-05-25T12:14:48;98216.31;;;25.20;33.08
16030;BME280;34770;49.272;11.070;2023-05-25T12:17:15;98203.00;;;24.19;32.64
16030;BME280;34770;49.272;11.070;2023-05-25T12:19:41;98195.28;;;25.51;31.83
16030;BME280;34770;49.272;11.070;2023-05-25T12:22:07;98221.97;;;25.89;30.41
16030;BME280;34770;49.272;11.070;2023-05-25T12:24:33;98206.78;;;24.97;32.25
16030;BME280;34770;49.272;11.070;2023-05-25T12:26:58;98215.25;;;25.66;31.41
16030;BME280;34770;49.272;11.070;2023-05-25T12:29:27;98211.56;;;25.78;30.90
16030;BME280;34770;49.272;11.070;2023-05-25T12:31:52;98202.31;;;24.89;32.19
16030;BME280;34770;49.272;11.070;2023-05-25T12:34:26;98195.00;;;25.65;31.14
16030;BME280;34770;49.272;11.070;2023-05-25T12:36:54;98199.97;;;25.50;30.54
16030;BME280;34770;49.272;11.070;2023-05-25T12:41:59;98193.38;;;25.45;31.98
16030;BME280;34770;49.272;11.070;2023-05-25T12:47:20;98183.06;;;27.13;28.71
16030;BME280;34770;49.272;11.070;2023-05-25T12:49:50;98180.19;;;27.01;28.57
16030;BME280;34770;49.272;11.070;2023-05-25T12:55:27;98186.91;;;26.26;29.98
16030;BME280;34770;49.272;11.070;2023-05-25T12:57:58;98189.66;;;26.76;30.03
16030;BME280;34770;49.272;11.070;2023-05-25T13:00:32;98191.75;;;26.56;29.57
16030;BME280;34770;49.272;11.070;2023-05-25T13:02:58;98179.38;;;26.58;29.26
16030;BME280;34770;49.272;11.070;2023-05-25T13:05:30;98172.56;;;27.33;28.42
16030;BME280;34770;49.272;11.070;2023-05-25T13:07:57;98176.66;;;27.13;28.03
16030;BME280;34770;49.272;11.070;2023-05-25T13:10:24;98167.66;;;26.25;29.69
16030;BME280;34770;49.272;11.070;2023-05-25T13:12:50;98181.56;;;27.29;28.92
16030;BME280;34770;49.272;11.070;2023-05-25T13:15:18;98172.81;;;27.91;28.70
16030;BME280;34770;49.272;11.070;2023-05-25T13:17:50;98189.16;;;27.88;26.86
16030;BME280;34770;49.272;11.070;2023-05-25T13:20:18;98173.81;;;28.38;27.84
16030;BME280;34770;49.272;11.070;2023-05-25T13:22:44;98158.34;;;27.41;28.38
16030;BME280;34770;49.272;11.070;2023-05-25T13:25:11;98169.66;;;27.40;27.58